Alvarado, Texas
Current Conditions -  °F | °C
As of 12:15 AM on Wednesday 28 Jan 2015 (Local Time) from KFWS Reporting Station
Clear Clear  
Wind Chill: 10°   Ceiling: Unl
Heat Index: 10°   Visibility: 10mi
Dew Point:   Wind: 3mph
Humidity: 67%   Direction: 200°SSW
Pressure: 30.13"   Gusts: NA
Location:  32.41°N, 97.21°W
Report Text: KFWS 280615Z AUTO 20003KT 10SM CLR 10/04 A3013 RMK AO2 T01010042
Loading
Personal Weather Stations






























Interactive Weather Map New forecast layout! Learn more

10-Day Weather Forecast

Advertisements
Track Severe Weather on mobile